메인 페이지
METAR-TAF:

METAR-TAF

공항 :

뉴올리언스, 루이지애나, 미국

위도: 29-59-34N, 경도: 090-15-03W, 고도: 1m

현재 날씨관측

예보는 59분 전, 03:53시(UTC)에 발표되었습니다.
동남동5kt
온도 8°C
습도 61%
기압 1025 hPa
시정: 16.1km
고도 25000ft 상공 구름 많음

METAR: KMSY 200353Z 11005KT 10SM BKN250 08/01 A3028 RMK AO2 SLP255 T00780011

시각: 22:52 (04:52 UTC)

예보

예보는 5 시간 15분 전, 23:37시(UTC)에 발표되었습니다.
예보 대상 시간: 20일 00시부터 21일 06시까지 (UTC)
5kt
시정: 10km
고도 1000ft 상공 구름 조금
고도 8000ft 상공 구름 조금
고도 27000ft 상공 흐림
20일 0400시부터 (UTC)
동남동4kt
시정: 10km
고도 20000ft 상공 구름 많음
20일 1800시부터 (UTC)
남동9kt
시정: 10km
고도 7000ft 상공 구름 많음
20일 2300시부터 (UTC)
남동8kt
시정: 10km
고도 6000ft 상공 구름 보통

TAF: KMSY 192337Z 2000/2106 19005KT P6SM FEW010 FEW080 OVC270 FM200400 12004KT P6SM BKN200 FM201800 14009KT P6SM BKN070 FM202300 13008KT P6SM SCT060

4,000개 이상의 공항 관측 자료 및 예보 (METAR 및 TAF 보고).

지도상에서 검색 가능한 기상관측소가 노란 점과 빨간 점으로 표시되어 있습니다.

기상관측소 명을 보려면 표시 위로 마우스를 이동하세요.

날씨 관측과 예보를 보려면 클릭하세요.

지도 변경 : 확대하려면 엑스 표시가 있는 녹색 버튼, 축소하려면 빼기 표시가 있는 녹색 버튼, 다음 페이지의 지도를 보려면 녹색 화살표를 클릭하세요.


METAR-TAF: